sensor_id;sensor_type;location;lat;lon;timestamp;pressure;altitude;pressure_sealevel;temperature;humidity
37648;BME280;23490;53.656;10.076;2023-04-12T00:02:05;99566.69;;;-145.95;100.00
37648;BME280;23490;53.656;10.076;2023-04-12T00:04:30;99574.97;;;-145.95;100.00
37648;BME280;23490;53.656;10.076;2023-04-12T00:06:58;99579.09;;;-145.95;100.00
37648;BME280;23490;53.656;10.076;2023-04-12T00:09:25;99587.34;;;-145.95;100.00
37648;BME280;23490;53.656;10.076;2023-04-12T00:11:55;99574.97;;;-145.95;100.00
37648;BME280;23490;53.656;10.076;2023-04-12T00:14:22;99591.50;;;-145.95;100.00
37648;BME280;23490;53.656;10.076;2023-04-12T00:16:47;99529.53;;;-145.95;100.00
37648;BME280;23490;53.656;10.076;2023-04-12T00:19:13;99583.22;;;-145.95;100.00
37648;BME280;23490;53.656;10.076;2023-04-12T00:21:41;99570.84;;;-145.95;100.00
37648;BME280;23490;53.656;10.076;2023-04-12T00:24:06;99581.16;;;-145.95;100.00
37648;BME280;23490;53.656;10.076;2023-04-12T00:26:32;99603.88;;;-145.95;100.00
37648;BME280;23490;53.656;10.076;2023-04-12T00:28:57;99558.44;;;-145.95;100.00
37648;BME280;23490;53.656;10.076;2023-04-12T00:31:22;99585.28;;;-145.95;100.00
37648;BME280;23490;53.656;10.076;2023-04-12T00:33:48;99570.84;;;-145.95;100.00
37648;BME280;23490;53.656;10.076;2023-04-12T00:36:13;99574.97;;;-145.95;100.00
37648;BME280;23490;53.656;10.076;2023-04-12T00:38:39;99552.25;;;-145.95;100.00
37648;BME280;23490;53.656;10.076;2023-04-12T00:41:04;99595.63;;;-145.95;100.00
37648;BME280;23490;53.656;10.076;2023-04-12T00:43:30;99579.09;;;-145.95;100.00
37648;BME280;23490;53.656;10.076;2023-04-12T00:45:56;99579.09;;;-145.95;100.00
37648;BME280;23490;53.656;10.076;2023-04-12T00:48:23;99583.22;;;-145.95;100.00
37648;BME280;23490;53.656;10.076;2023-04-12T00:50:48;99595.63;;;-145.95;100.00
37648;BME280;23490;53.656;10.076;2023-04-12T00:53:15;99601.81;;;-145.95;100.00
37648;BME280;23490;53.656;10.076;2023-04-12T00:55:43;99612.16;;;-145.95;100.00
37648;BME280;23490;53.656;10.076;2023-04-12T00:58:09;99628.66;;;-145.95;100.00
37648;BME280;23490;53.656;10.076;2023-04-12T01:00:34;99583.22;;;-145.95;100.00
37648;BME280;23490;53.656;10.076;2023-04-12T01:03:00;99583.22;;;-145.95;100.00
37648;BME280;23490;53.656;10.076;2023-04-12T01:05:27;99595.63;;;-145.95;100.00
37648;BME280;23490;53.656;10.076;2023-04-12T01:08:17;99595.63;;;-145.95;100.00
37648;BME280;23490;53.656;10.076;2023-04-12T01:10:56;99583.22;;;-145.95;100.00
37648;BME280;23490;53.656;10.076;2023-04-12T01:13:35;99624.53;;;-145.95;100.00
37648;BME280;23490;53.656;10.076;2023-04-12T01:16:12;99570.84;;;-145.95;100.00
37648;BME280;23490;53.656;10.076;2023-04-12T01:18:43;99624.53;;;-145.95;100.00
37648;BME280;23490;53.656;10.076;2023-04-12T01:21:25;99593.56;;;-145.95;100.00
37648;BME280;23490;53.656;10.076;2023-04-12T01:26:43;99616.28;;;-145.95;100.00
37648;BME280;23490;53.656;10.076;2023-04-12T01:29:10;99612.16;;;-145.95;100.00
37648;BME280;23490;53.656;10.076;2023-04-12T01:31:39;99603.88;;;-145.95;100.00
37648;BME280;23490;53.656;10.076;2023-04-12T01:34:08;99595.63;;;-145.95;100.00
37648;BME280;23490;53.656;10.076;2023-04-12T01:36:36;99616.28;;;-145.95;100.00
37648;BME280;23490;53.656;10.076;2023-04-12T01:39:03;99595.63;;;-145.95;100.00
37648;BME280;23490;53.656;10.076;2023-04-12T01:41:31;99603.88;;;-145.95;100.00
37648;BME280;23490;53.656;10.076;2023-04-12T01:43:57;99605.94;;;-145.95;100.00
37648;BME280;23490;53.656;10.076;2023-04-12T01:46:22;99614.22;;;-145.95;100.00
37648;BME280;23490;53.656;10.076;2023-04-12T01:48:50;99612.16;;;-145.95;100.00
37648;BME280;23490;53.656;10.076;2023-04-12T01:54:08;99603.88;;;-145.95;100.00
37648;BME280;23490;53.656;10.076;2023-04-12T01:56:38;99624.53;;;-145.95;100.00
37648;BME280;23490;53.656;10.076;2023-04-12T01:59:06;99603.88;;;-145.95;100.00
37648;BME280;23490;53.656;10.076;2023-04-12T02:01:32;99589.44;;;-145.95;100.00
37648;BME280;23490;53.656;10.076;2023-04-12T02:03:58;99599.75;;;-145.95;100.00
37648;BME280;23490;53.656;10.076;2023-04-12T02:06:26;99595.63;;;-145.95;100.00
37648;BME280;23490;53.656;10.076;2023-04-12T02:08:59;99653.44;;;-145.95;100.00
37648;BME280;23490;53.656;10.076;2023-04-12T02:11:27;99601.81;;;-145.95;100.00
37648;BME280;23490;53.656;10.076;2023-04-12T02:13:52;99641.06;;;-145.95;100.00
37648;BME280;23490;53.656;10.076;2023-04-12T02:16:17;99616.28;;;-145.95;100.00
37648;BME280;23490;53.656;10.076;2023-04-12T02:18:45;99624.53;;;-145.95;100.00
37648;BME280;23490;53.656;10.076;2023-04-12T02:21:10;99628.66;;;-145.95;100.00
37648;BME280;23490;53.656;10.076;2023-04-12T02:23:36;99603.88;;;-145.95;100.00
37648;BME280;23490;53.656;10.076;2023-04-12T02:26:01;99620.41;;;-145.95;100.00
37648;BME280;23490;53.656;10.076;2023-04-12T02:28:27;99589.44;;;-145.95;100.00
37648;BME280;23490;53.656;10.076;2023-04-12T02:30:53;99583.22;;;-145.95;100.00
37648;BME280;23490;53.656;10.076;2023-04-12T02:33:18;99630.72;;;-145.95;100.00
37648;BME280;23490;53.656;10.076;2023-04-12T02:35:46;99587.34;;;-145.95;100.00
37648;BME280;23490;53.656;10.076;2023-04-12T02:38:12;99616.28;;;-145.95;100.00
37648;BME280;23490;53.656;10.076;2023-04-12T02:40:38;99605.94;;;-145.95;100.00
37648;BME280;23490;53.656;10.076;2023-04-12T02:43:07;99595.63;;;-145.95;100.00
37648;BME280;23490;53.656;10.076;2023-04-12T02:45:33;99595.63;;;-145.95;100.00
37648;BME280;23490;53.656;10.076;2023-04-12T02:47:58;99591.50;;;-145.95;100.00
37648;BME280;23490;53.656;10.076;2023-04-12T02:50:23;99579.09;;;-145.95;100.00
37648;BME280;23490;53.656;10.076;2023-04-12T02:52:49;99577.03;;;-145.95;100.00
37648;BME280;23490;53.656;10.076;2023-04-12T02:55:14;99579.09;;;-145.95;100.00
37648;BME280;23490;53.656;10.076;2023-04-12T02:57:43;99603.88;;;-145.95;100.00
37648;BME280;23490;53.656;10.076;2023-04-12T03:00:09;99641.06;;;-145.95;100.00
37648;BME280;23490;53.656;10.076;2023-04-12T03:02:37;99537.78;;;-145.95;100.00
37648;BME280;23490;53.656;10.076;2023-04-12T03:05:03;99614.22;;;-145.95;100.00
37648;BME280;23490;53.656;10.076;2023-04-12T03:07:29;99599.75;;;-145.95;100.00
37648;BME280;23490;53.656;10.076;2023-04-12T03:09:55;99587.34;;;-145.95;100.00
37648;BME280;23490;53.656;10.076;2023-04-12T03:12:20;99618.34;;;-145.95;100.00
37648;BME280;23490;53.656;10.076;2023-04-12T03:14:46;99587.34;;;-145.95;100.00
37648;BME280;23490;53.656;10.076;2023-04-12T03:17:11;99603.88;;;-145.95;100.00
37648;BME280;23490;53.656;10.076;2023-04-12T03:19:36;99620.41;;;-145.95;100.00
37648;BME280;23490;53.656;10.076;2023-04-12T03:22:03;99608.00;;;-145.95;100.00
37648;BME280;23490;53.656;10.076;2023-04-12T03:24:29;99608.00;;;-145.95;100.00
37648;BME280;23490;53.656;10.076;2023-04-12T03:26:58;99585.28;;;-145.95;100.00
37648;BME280;23490;53.656;10.076;2023-04-12T03:29:23;99612.16;;;-145.95;100.00
37648;BME280;23490;53.656;10.076;2023-04-12T03:31:48;99622.47;;;-145.95;100.00
37648;BME280;23490;53.656;10.076;2023-04-12T03:34:14;99628.66;;;-145.95;100.00
37648;BME280;23490;53.656;10.076;2023-04-12T03:36:39;99529.53;;;-145.95;100.00
37648;BME280;23490;53.656;10.076;2023-04-12T03:39:05;99583.22;;;-145.95;100.00
37648;BME280;23490;53.656;10.076;2023-04-12T03:41:31;99579.09;;;-145.95;100.00
37648;BME280;23490;53.656;10.076;2023-04-12T03:43:56;99624.53;;;-145.95;100.00
37648;BME280;23490;53.656;10.076;2023-04-12T03:46:21;99616.28;;;-145.95;100.00
37648;BME280;23490;53.656;10.076;2023-04-12T03:48:48;99566.69;;;-145.95;100.00
37648;BME280;23490;53.656;10.076;2023-04-12T03:51:13;99595.63;;;-145.95;100.00
37648;BME280;23490;53.656;10.076;2023-04-12T03:53:40;99595.63;;;-145.95;100.00
37648;BME280;23490;53.656;10.076;2023-04-12T03:56:06;99608.00;;;-145.95;100.00
37648;BME280;23490;53.656;10.076;2023-04-12T03:58:31;99603.88;;;-145.95;100.00
37648;BME280;23490;53.656;10.076;2023-04-12T04:01:03;99595.63;;;-145.95;100.00
37648;BME280;23490;53.656;10.076;2023-04-12T04:03:30;99614.22;;;-145.95;100.00
37648;BME280;23490;53.656;10.076;2023-04-12T04:05:59;99579.09;;;-145.95;100.00
37648;BME280;23490;53.656;10.076;2023-04-12T04:08:26;99587.34;;;-145.95;100.00
37648;BME280;23490;53.656;10.076;2023-04-12T04:10:52;99541.91;;;-145.95;100.00
37648;BME280;23490;53.656;10.076;2023-04-12T04:13:18;99587.34;;;-145.95;100.00
37648;BME280;23490;53.656;10.076;2023-04-12T04:15:43;99634.84;;;-145.95;100.00
37648;BME280;23490;53.656;10.076;2023-04-12T04:18:09;99558.44;;;-145.95;100.00
37648;BME280;23490;53.656;10.076;2023-04-12T04:20:34;99591.50;;;-145.95;100.00
37648;BME280;23490;53.656;10.076;2023-04-12T04:22:59;99562.56;;;-145.95;100.00
37648;BME280;23490;53.656;10.076;2023-04-12T04:25:25;99562.56;;;-145.95;100.00
37648;BME280;23490;53.656;10.076;2023-04-12T04:27:58;99574.97;;;-145.95;100.00
37648;BME280;23490;53.656;10.076;2023-04-12T04:30:24;99599.75;;;-145.95;100.00
37648;BME280;23490;53.656;10.076;2023-04-12T04:32:50;99572.91;;;-145.95;100.00
37648;BME280;23490;53.656;10.076;2023-04-12T04:35:16;99587.34;;;-145.95;100.00
37648;BME280;23490;53.656;10.076;2023-04-12T04:37:41;99603.88;;;-145.95;100.00
37648;BME280;23490;53.656;10.076;2023-04-12T04:40:08;99603.88;;;-145.95;100.00
37648;BME280;23490;53.656;10.076;2023-04-12T04:42:34;99558.44;;;-145.95;100.00
37648;BME280;23490;53.656;10.076;2023-04-12T04:45:01;99533.66;;;-145.95;100.00
37648;BME280;23490;53.656;10.076;2023-04-12T04:47:27;99558.44;;;-145.95;100.00
37648;BME280;23490;53.656;10.076;2023-04-12T04:49:54;99537.78;;;-145.95;100.00
37648;BME280;23490;53.656;10.076;2023-04-12T04:52:22;99568.78;;;-145.95;100.00
37648;BME280;23490;53.656;10.076;2023-04-12T04:54:47;99583.22;;;-145.95;100.00
37648;BME280;23490;53.656;10.076;2023-04-12T04:57:13;99560.50;;;-145.95;100.00
37648;BME280;23490;53.656;10.076;2023-04-12T04:59:38;99570.84;;;-145.95;100.00
37648;BME280;23490;53.656;10.076;2023-04-12T05:02:04;99550.19;;;-145.95;100.00
37648;BME280;23490;53.656;10.076;2023-04-12T05:04:29;99500.63;;;-145.95;100.00
37648;BME280;23490;53.656;10.076;2023-04-12T05:06:55;99554.31;;;-145.95;100.00
37648;BME280;23490;53.656;10.076;2023-04-12T05:09:20;99570.84;;;-145.95;100.00
37648;BME280;23490;53.656;10.076;2023-04-12T05:11:46;99562.56;;;-145.95;100.00
37648;BME280;23490;53.656;10.076;2023-04-12T05:14:11;99537.78;;;-145.95;100.00
37648;BME280;23490;53.656;10.076;2023-04-12T05:16:36;99537.78;;;-145.95;100.00
37648;BME280;23490;53.656;10.076;2023-04-12T05:19:02;99533.66;;;-145.95;100.00
37648;BME280;23490;53.656;10.076;2023-04-12T05:21:27;99574.97;;;-145.95;100.00
37648;BME280;23490;53.656;10.076;2023-04-12T05:23:53;99560.50;;;-145.95;99.96
37648;BME280;23490;53.656;10.076;2023-04-12T05:26:18;99562.56;;;-145.95;99.04
37648;BME280;23490;53.656;10.076;2023-04-12T05:28:45;99566.69;;;-145.95;99.70
37648;BME280;23490;53.656;10.076;2023-04-12T05:31:11;99517.13;;;-145.95;99.29
37648;BME280;23490;53.656;10.076;2023-04-12T05:33:36;99552.25;;;-145.95;99.05
37648;BME280;23490;53.656;10.076;2023-04-12T05:36:02;99546.06;;;-145.95;99.63
37648;BME280;23490;53.656;10.076;2023-04-12T05:38:27;99529.53;;;-145.95;98.90
37648;BME280;23490;53.656;10.076;2023-04-12T05:40:52;99574.97;;;-145.95;98.48
37648;BME280;23490;53.656;10.076;2023-04-12T05:43:18;99550.19;;;-145.95;97.73
37648;BME280;23490;53.656;10.076;2023-04-12T05:45:44;99541.91;;;-145.95;97.59
37648;BME280;23490;53.656;10.076;2023-04-12T05:48:10;99529.53;;;-145.95;97.65
37648;BME280;23490;53.656;10.076;2023-04-12T05:50:35;99525.41;;;-145.95;96.85
37648;BME280;23490;53.656;10.076;2023-04-12T05:53:00;99537.78;;;-145.95;96.58
37648;BME280;23490;53.656;10.076;2023-04-12T05:55:27;99463.44;;;-145.95;94.79
37648;BME280;23490;53.656;10.076;2023-04-12T05:57:52;99488.22;;;-145.95;93.63
37648;BME280;23490;53.656;10.076;2023-04-12T06:00:19;99513.00;;;-145.95;93.86
37648;BME280;23490;53.656;10.076;2023-04-12T06:02:46;99488.22;;;-145.95;94.12
37648;BME280;23490;53.656;10.076;2023-04-12T06:05:13;99479.97;;;-145.95;92.09
37648;BME280;23490;53.656;10.076;2023-04-12T06:07:39;99488.22;;;-145.95;92.21
37648;BME280;23490;53.656;10.076;2023-04-12T06:10:06;99463.44;;;-145.95;90.76
37648;BME280;23490;53.656;10.076;2023-04-12T06:12:32;99471.69;;;-145.95;88.96
37648;BME280;23490;53.656;10.076;2023-04-12T06:14:57;99469.63;;;-145.95;89.08
37648;BME280;23490;53.656;10.076;2023-04-12T06:17:23;99475.84;;;-145.95;88.37
37648;BME280;23490;53.656;10.076;2023-04-12T06:19:48;99384.97;;;-145.95;88.25
37648;BME280;23490;53.656;10.076;2023-04-12T06:22:14;99401.50;;;-145.95;87.44
37648;BME280;23490;53.656;10.076;2023-04-12T06:24:39;99415.94;;;-145.95;86.61
37648;BME280;23490;53.656;10.076;2023-04-12T06:27:05;99418.00;;;-145.95;86.94
37648;BME280;23490;53.656;10.076;2023-04-12T06:29:30;99376.69;;;-145.95;83.96
37648;BME280;23490;53.656;10.076;2023-04-12T06:31:55;99405.63;;;-145.95;84.06
37648;BME280;23490;53.656;10.076;2023-04-12T06:34:21;99376.69;;;-145.95;82.58
37648;BME280;23490;53.656;10.076;2023-04-12T06:36:46;99393.22;;;-145.95;82.89
37648;BME280;23490;53.656;10.076;2023-04-12T06:39:12;99347.78;;;-145.95;82.43
37648;BME280;23490;53.656;10.076;2023-04-12T06:41:38;99351.91;;;-145.95;80.33
37648;BME280;23490;53.656;10.076;2023-04-12T06:44:03;99316.81;;;-145.95;80.48
37648;BME280;23490;53.656;10.076;2023-04-12T06:46:30;99327.13;;;-145.95;78.44
37648;BME280;23490;53.656;10.076;2023-04-12T06:48:55;99314.75;;;-145.95;78.67
37648;BME280;23490;53.656;10.076;2023-04-12T06:51:21;99285.84;;;-145.95;76.36
37648;BME280;23490;53.656;10.076;2023-04-12T06:53:46;99267.25;;;-145.95;77.65
37648;BME280;23490;53.656;10.076;2023-04-12T06:56:12;99265.19;;;-145.95;73.72
37648;BME280;23490;53.656;10.076;2023-04-12T06:58:37;99225.94;;;-145.95;74.05
37648;BME280;23490;53.656;10.076;2023-04-12T07:01:06;99203.22;;;-145.95;74.75
37648;BME280;23490;53.656;10.076;2023-04-12T07:03:32;99186.72;;;-145.95;71.85
37648;BME280;23490;53.656;10.076;2023-04-12T07:05:58;99166.06;;;-145.95;68.97
37648;BME280;23490;53.656;10.076;2023-04-12T07:08:34;99172.25;;;-145.95;68.60
37648;BME280;23490;53.656;10.076;2023-04-12T07:10:59;99166.06;;;-145.95;67.10
37648;BME280;23490;53.656;10.076;2023-04-12T07:13:25;99124.75;;;-145.95;67.49
37648;BME280;23490;53.656;10.076;2023-04-12T07:15:51;99141.28;;;-145.95;65.93
37648;BME280;23490;53.656;10.076;2023-04-12T07:18:17;99079.34;;;-145.95;65.51
37648;BME280;23490;53.656;10.076;2023-04-12T07:20:45;99122.69;;;-145.95;64.94
37648;BME280;23490;53.656;10.076;2023-04-12T07:23:11;99108.25;;;-145.95;64.64
37648;BME280;23490;53.656;10.076;2023-04-12T07:25:36;99087.59;;;-145.95;64.65
37648;BME280;23490;53.656;10.076;2023-04-12T07:28:03;99075.19;;;-145.95;63.70
37648;BME280;23490;53.656;10.076;2023-04-12T07:30:28;99079.34;;;-145.95;63.94
37648;BME280;23490;53.656;10.076;2023-04-12T07:32:54;99079.34;;;-145.95;65.06
37648;BME280;23490;53.656;10.076;2023-04-12T07:35:19;99046.28;;;-145.95;64.93
37648;BME280;23490;53.656;10.076;2023-04-12T07:37:46;99029.78;;;-145.95;63.51
37648;BME280;23490;53.656;10.076;2023-04-12T07:40:11;99011.19;;;-145.95;63.82
37648;BME280;23490;53.656;10.076;2023-04-12T07:42:37;99005.00;;;-145.95;63.50
37648;BME280;23490;53.656;10.076;2023-04-12T07:45:02;98992.59;;;-145.95;62.76
37648;BME280;23490;53.656;10.076;2023-04-12T07:47:28;99009.13;;;-145.95;62.71
37648;BME280;23490;53.656;10.076;2023-04-12T07:49:53;98984.34;;;-145.95;61.89
37648;BME280;23490;53.656;10.076;2023-04-12T07:52:20;98992.59;;;-145.95;61.10
37648;BME280;23490;53.656;10.076;2023-04-12T07:54:46;99046.28;;;-145.95;61.88
37648;BME280;23490;53.656;10.076;2023-04-12T07:57:11;99046.28;;;-145.95;63.36
37648;BME280;23490;53.656;10.076;2023-04-12T07:59:37;99066.94;;;-145.95;62.24
37648;BME280;23490;53.656;10.076;2023-04-12T08:02:02;99042.16;;;-145.95;62.41
37648;BME280;23490;53.656;10.076;2023-04-12T08:04:27;99013.25;;;-145.95;62.73
37648;BME280;23490;53.656;10.076;2023-04-12T08:06:53;99019.44;;;-145.95;62.88
37648;BME280;23490;53.656;10.076;2023-04-12T08:09:19;99062.81;;;-145.95;62.56
37648;BME280;23490;53.656;10.076;2023-04-12T08:11:45;99033.91;;;-145.95;62.33
37648;BME280;23490;53.656;10.076;2023-04-12T08:14:11;99044.22;;;-145.95;61.98
37648;BME280;23490;53.656;10.076;2023-04-12T08:16:37;98988.47;;;-145.95;62.85
37648;BME280;23490;53.656;10.076;2023-04-12T08:19:03;99009.13;;;-145.95;61.41
37648;BME280;23490;53.656;10.076;2023-04-12T08:21:28;98996.72;;;-145.95;62.41
37648;BME280;23490;53.656;10.076;2023-04-12T08:23:55;99007.06;;;-145.95;61.54
37648;BME280;23490;53.656;10.076;2023-04-12T08:26:21;99017.38;;;-145.95;61.96
37648;BME280;23490;53.656;10.076;2023-04-12T08:28:46;99009.13;;;-145.95;60.80
37648;BME280;23490;53.656;10.076;2023-04-12T08:31:13;99005.00;;;-145.95;61.06
37648;BME280;23490;53.656;10.076;2023-04-12T08:33:39;99021.50;;;-145.95;61.49
37648;BME280;23490;53.656;10.076;2023-04-12T08:36:04;98992.59;;;-145.95;61.30
37648;BME280;23490;53.656;10.076;2023-04-12T08:38:30;99021.50;;;-145.95;61.06
37648;BME280;23490;53.656;10.076;2023-04-12T08:41:14;99021.50;;;-145.95;60.40
37648;BME280;23490;53.656;10.076;2023-04-12T08:43:59;99038.03;;;-145.95;60.84
37648;BME280;23490;53.656;10.076;2023-04-12T08:46:45;99046.28;;;-145.95;59.17
37648;BME280;23490;53.656;10.076;2023-04-12T08:49:32;99029.78;;;-145.95;59.47
37648;BME280;23490;53.656;10.076;2023-04-12T08:52:18;99033.91;;;-145.95;60.04
37648;BME280;23490;53.656;10.076;2023-04-12T08:55:05;99007.06;;;-145.95;59.79
37648;BME280;23490;53.656;10.076;2023-04-12T08:57:52;99025.63;;;-145.95;59.99
37648;BME280;23490;53.656;10.076;2023-04-12T09:00:40;99015.31;;;-145.95;60.73
37648;BME280;23490;53.656;10.076;2023-04-12T09:03:26;99007.06;;;-145.95;60.35
37648;BME280;23490;53.656;10.076;2023-04-12T09:06:12;99005.00;;;-145.95;59.47
37648;BME280;23490;53.656;10.076;2023-04-12T09:08:58;99013.25;;;-145.95;60.06
37648;BME280;23490;53.656;10.076;2023-04-12T09:11:44;99025.63;;;-145.95;59.39
37648;BME280;23490;53.656;10.076;2023-04-12T09:14:30;99021.50;;;-145.95;59.99
37648;BME280;23490;53.656;10.076;2023-04-12T09:17:25;99009.13;;;-145.95;59.65
37648;BME280;23490;53.656;10.076;2023-04-12T09:22:57;98967.81;;;-145.95;59.44
37648;BME280;23490;53.656;10.076;2023-04-12T09:25:43;98974.00;;;-145.95;59.52
37648;BME280;23490;53.656;10.076;2023-04-12T09:28:30;98932.72;;;-145.95;59.63
37648;BME280;23490;53.656;10.076;2023-04-12T09:31:15;98963.69;;;-145.95;59.04
37648;BME280;23490;53.656;10.076;2023-04-12T09:34:06;98901.75;;;-145.95;59.70
37648;BME280;23490;53.656;10.076;2023-04-12T09:36:39;98984.34;;;-145.95;59.02
37648;BME280;23490;53.656;10.076;2023-04-12T09:39:06;98901.75;;;-145.95;59.77
37648;BME280;23490;53.656;10.076;2023-04-12T09:41:32;98901.75;;;-145.95;58.12
37648;BME280;23490;53.656;10.076;2023-04-12T09:43:59;98893.47;;;-145.95;60.07
37648;BME280;23490;53.656;10.076;2023-04-12T09:46:24;98901.75;;;-145.95;58.60
37648;BME280;23490;53.656;10.076;2023-04-12T09:48:54;98922.41;;;-145.95;59.92
37648;BME280;23490;53.656;10.076;2023-04-12T09:51:23;98910.00;;;-145.95;58.28
37648;BME280;23490;53.656;10.076;2023-04-12T09:53:51;98907.94;;;-145.95;58.68
37648;BME280;23490;53.656;10.076;2023-04-12T09:56:17;98876.97;;;-145.95;58.42
37648;BME280;23490;53.656;10.076;2023-04-12T09:58:46;98938.91;;;-145.95;58.32
37648;BME280;23490;53.656;10.076;2023-04-12T10:01:14;98934.78;;;-145.95;58.26
37648;BME280;23490;53.656;10.076;2023-04-12T10:03:40;98914.13;;;-145.95;57.69
37648;BME280;23490;53.656;10.076;2023-04-12T10:06:06;98876.97;;;-145.95;58.10
37648;BME280;23490;53.656;10.076;2023-04-12T10:08:32;98899.69;;;-145.95;58.79
37648;BME280;23490;53.656;10.076;2023-04-12T10:10:58;98936.84;;;-145.95;57.54
37648;BME280;23490;53.656;10.076;2023-04-12T10:13:25;98883.16;;;-145.95;58.17
37648;BME280;23490;53.656;10.076;2023-04-12T10:15:51;98910.00;;;-145.95;58.88
37648;BME280;23490;53.656;10.076;2023-04-12T10:18:17;98918.25;;;-145.95;58.94
37648;BME280;23490;53.656;10.076;2023-04-12T10:20:44;98860.44;;;-145.95;58.12
37648;BME280;23490;53.656;10.076;2023-04-12T10:23:10;98943.03;;;-145.95;58.58
37648;BME280;23490;53.656;10.076;2023-04-12T10:25:38;98881.09;;;-145.95;59.08
37648;BME280;23490;53.656;10.076;2023-04-12T10:28:18;98885.22;;;-145.95;58.79
37648;BME280;23490;53.656;10.076;2023-04-12T10:30:45;98885.22;;;-145.95;60.15
37648;BME280;23490;53.656;10.076;2023-04-12T10:33:17;98872.84;;;-145.95;59.04
37648;BME280;23490;53.656;10.076;2023-04-12T10:36:02;98876.97;;;-145.95;59.49
37648;BME280;23490;53.656;10.076;2023-04-12T10:38:44;98876.97;;;-145.95;60.11
37648;BME280;23490;53.656;10.076;2023-04-12T10:41:15;98860.44;;;-145.95;61.73
37648;BME280;23490;53.656;10.076;2023-04-12T10:43:45;98876.97;;;-145.95;61.64
37648;BME280;23490;53.656;10.076;2023-04-12T10:49:08;98897.63;;;-145.95;64.92
37648;BME280;23490;53.656;10.076;2023-04-12T10:51:33;98889.34;;;-145.95;63.58
37648;BME280;23490;53.656;10.076;2023-04-12T10:56:43;98872.84;;;-145.95;65.77
37648;BME280;23490;53.656;10.076;2023-04-12T10:59:13;98883.16;;;-145.95;66.75
37648;BME280;23490;53.656;10.076;2023-04-12T11:01:40;98914.13;;;-145.95;66.88
37648;BME280;23490;53.656;10.076;2023-04-12T11:04:13;98905.88;;;-145.95;69.18
37648;BME280;23490;53.656;10.076;2023-04-12T11:11:49;98994.66;;;-145.95;71.86
37648;BME280;23490;53.656;10.076;2023-04-12T11:14:15;98969.88;;;-145.95;72.17
37648;BME280;23490;53.656;10.076;2023-04-12T11:19:41;99042.16;;;-145.95;77.26
37648;BME280;23490;53.656;10.076;2023-04-12T11:22:11;99009.13;;;-145.95;79.73
37648;BME280;23490;53.656;10.076;2023-04-12T11:24:37;99052.47;;;-145.95;80.63
37648;BME280;23490;53.656;10.076;2023-04-12T11:27:03;99000.84;;;-145.95;82.28
37648;BME280;23490;53.656;10.076;2023-04-12T11:29:28;99054.56;;;-145.95;87.86
37648;BME280;23490;53.656;10.076;2023-04-12T11:31:57;99091.72;;;-145.95;90.24
37648;BME280;23490;53.656;10.076;2023-04-12T11:34:22;99104.09;;;-145.95;94.50
37648;BME280;23490;53.656;10.076;2023-04-12T11:36:51;99079.34;;;-145.95;95.86
37648;BME280;23490;53.656;10.076;2023-04-12T11:39:18;99116.50;;;-145.95;98.92
37648;BME280;23490;53.656;10.076;2023-04-12T11:41:48;99124.75;;;-145.95;100.00
37648;BME280;23490;53.656;10.076;2023-04-12T11:44:14;99170.19;;;-145.95;100.00
37648;BME280;23490;53.656;10.076;2023-04-12T11:46:43;99153.66;;;-145.95;100.00
37648;BME280;23490;53.656;10.076;2023-04-12T11:49:08;99153.66;;;-145.95;100.00
37648;BME280;23490;53.656;10.076;2023-04-12T11:51:34;99161.94;;;-145.95;100.00
37648;BME280;23490;53.656;10.076;2023-04-12T11:54:00;99207.38;;;-145.95;100.00
37648;BME280;23490;53.656;10.076;2023-04-12T11:56:27;99190.84;;;-145.95;100.00
37648;BME280;23490;53.656;10.076;2023-04-12T11:58:53;99217.69;;;-145.95;100.00
37648;BME280;23490;53.656;10.076;2023-04-12T12:01:19;99205.28;;;-145.95;100.00
37648;BME280;23490;53.656;10.076;2023-04-12T12:03:45;99182.59;;;-145.95;100.00
37648;BME280;23490;53.656;10.076;2023-04-12T12:06:11;99201.16;;;-145.95;100.00
37648;BME280;23490;53.656;10.076;2023-04-12T12:08:38;99166.06;;;-145.95;100.00
37648;BME280;23490;53.656;10.076;2023-04-12T12:11:03;99215.63;;;-145.95;100.00
37648;BME280;23490;53.656;10.076;2023-04-12T12:13:55;99161.94;;;-145.95;100.00
37648;BME280;23490;53.656;10.076;2023-04-12T12:16:28;99194.97;;;-145.95;100.00
37648;BME280;23490;53.656;10.076;2023-04-12T12:18:54;99178.44;;;-145.95;100.00
37648;BME280;23490;53.656;10.076;2023-04-12T12:21:20;99174.31;;;-145.95;100.00
37648;BME280;23490;53.656;10.076;2023-04-12T12:23:46;99201.16;;;-145.95;100.00
37648;BME280;23490;53.656;10.076;2023-04-12T12:26:20;99166.06;;;-145.95;100.00
37648;BME280;23490;53.656;10.076;2023-04-12T12:28:51;99199.09;;;-145.95;100.00
37648;BME280;23490;53.656;10.076;2023-04-12T12:31:21;99197.03;;;-145.95;100.00
37648;BME280;23490;53.656;10.076;2023-04-12T12:33:46;99215.63;;;-145.95;100.00
37648;BME280;23490;53.656;10.076;2023-04-12T12:36:12;99190.84;;;-145.95;100.00
37648;BME280;23490;53.656;10.076;2023-04-12T12:38:39;99194.97;;;-145.95;100.00
37648;BME280;23490;53.656;10.076;2023-04-12T12:41:19;99186.72;;;-145.95;100.00
37648;BME280;23490;53.656;10.076;2023-04-12T12:43:46;99186.72;;;-145.95;100.00
37648;BME280;23490;53.656;10.076;2023-04-12T12:46:12;99186.72;;;-145.95;100.00
37648;BME280;23490;53.656;10.076;2023-04-12T12:48:41;99182.59;;;-145.95;100.00
37648;BME280;23490;53.656;10.076;2023-04-12T12:51:09;99145.41;;;-145.95;100.00
37648;BME280;23490;53.656;10.076;2023-04-12T12:53:36;99133.03;;;-145.95;100.00